Time;durP1;ratioP1;P1;durP2;ratioP2;P2;SDS_P1;SDS_P2;PMS_P1;PMS_P2;Temp;Humidity;BMP_temperature;BMP_pressure;BME280_temperature;BME280_humidity;BME280_pressure;Samples;Min_cycle;Max_cycle;Signal;HPM_P1;HPM_P2
2023/08/24 00:01:40;;;;;;;6.87;4.03;;;;;;;17.38;100.00;101775.13;7388254;19;20403;-47
2023/08/24 00:04:13;;;;;;;5.47;3.07;;;;;;;17.44;100.00;101769.25;7364624;19;20403;-46
2023/08/24 00:06:42;;;;;;;8.47;3.70;;;;;;;17.47;100.00;101765.81;7386686;19;21575;-48
2023/08/24 00:09:12;;;;;;;8.10;4.00;;;;;;;17.56;100.00;101768.69;7362933;19;20410;-47
2023/08/24 00:11:41;;;;;;;6.93;3.33;;;;;;;17.48;100.00;101775.44;7389319;19;20449;-46
2023/08/24 00:14:11;;;;;;;9.20;3.80;;;;;;;17.40;100.00;101775.19;7364501;19;20423;-47
2023/08/24 00:16:41;;;;;;;4.87;3.27;;;;;;;17.26;100.00;101770.47;7388040;19;20388;-48
2023/08/24 00:19:13;;;;;;;7.13;4.00;;;;;;;17.13;100.00;101763.97;7363797;19;20419;-47
2023/08/24 00:21:43;;;;;;;6.70;3.97;;;;;;;17.16;100.00;101757.09;7392878;19;20394;-49
2023/08/24 00:24:12;;;;;;;8.77;4.10;;;;;;;17.18;100.00;101745.84;7369968;19;20486;-45
2023/08/24 00:26:42;;;;;;;9.30;3.93;;;;;;;17.14;100.00;101734.44;7394798;19;20384;-47
2023/08/24 00:29:12;;;;;;;11.47;4.27;;;;;;;16.85;100.00;101734.41;7370607;19;20478;-46
2023/08/24 00:31:42;;;;;;;9.50;5.63;;;;;;;16.71;100.00;101722.66;7395062;19;20401;-49
2023/08/24 00:34:14;;;;;;;7.90;3.97;;;;;;;16.71;100.00;101713.13;7372514;19;20418;-50
2023/08/24 00:36:44;;;;;;;10.27;5.07;;;;;;;16.65;100.00;101706.81;7397187;19;20391;-51
2023/08/24 00:39:13;;;;;;;9.00;4.40;;;;;;;16.72;100.00;101687.97;7373162;19;20847;-52
2023/08/24 00:41:44;;;;;;;11.73;4.10;;;;;;;16.67;100.00;101689.53;7397172;19;20398;-50
2023/08/24 00:44:14;;;;;;;10.67;5.80;;;;;;;16.67;100.00;101673.91;7373329;19;20482;-44
2023/08/24 00:46:43;;;;;;;6.10;3.80;;;;;;;16.70;100.00;101658.34;7394689;19;20463;-49
2023/08/24 00:49:16;;;;;;;6.67;4.07;;;;;;;16.79;100.00;101649.94;7370680;19;20459;-47
2023/08/24 00:51:46;;;;;;;15.83;4.63;;;;;;;16.67;100.00;101653.06;7395093;19;20454;-49
2023/08/24 00:54:15;;;;;;;8.13;4.30;;;;;;;16.55;100.00;101649.25;7371426;19;20479;-48
2023/08/24 00:56:45;;;;;;;12.97;5.10;;;;;;;16.52;100.00;101643.94;7393826;19;20403;-48
2023/08/24 00:59:15;;;;;;;8.97;4.30;;;;;;;16.67;100.00;101629.63;7371532;19;20474;-48
2023/08/24 01:01:46;;;;;;;10.30;4.90;;;;;;;16.52;100.00;101632.63;7395149;19;20451;-45
2023/08/24 01:04:18;;;;;;;9.90;4.90;;;;;;;16.69;100.00;101614.91;7370280;19;20332;-48
2023/08/24 01:06:48;;;;;;;10.25;5.50;;;;;;;16.68;100.00;101618.34;7396987;19;20373;-50
2023/08/24 01:09:18;;;;;;;12.37;6.20;;;;;;;16.44;100.00;101622.88;7368517;19;20399;-49
2023/08/24 01:11:54;;;;;;;10.90;6.50;;;;;;;16.29;100.00;101612.84;7398662;19;20735;-49
2023/08/24 01:14:28;;;;;;;9.88;6.10;;;;;;;16.25;100.00;101610.97;7370615;19;20336;-53
2023/08/24 01:17:01;;;;;;;12.45;5.80;;;;;;;16.17;100.00;101602.03;7392203;19;20702;-45
2023/08/24 01:19:39;;;;;;;11.95;6.32;;;;;;;16.20;100.00;101592.59;7367243;19;20301;-45
2023/08/24 01:22:18;;;;;;;12.13;5.13;;;;;;;16.45;100.00;101580.34;7393519;19;20363;-47
2023/08/24 01:24:50;;;;;;;13.40;5.30;;;;;;;16.39;100.00;101584.47;7368775;19;20344;-48
2023/08/24 01:27:23;;;;;;;10.60;6.60;;;;;;;16.28;100.00;101582.44;7394327;19;20365;-45
2023/08/24 01:29:56;;;;;;;10.97;6.20;;;;;;;16.18;100.00;101583.88;7368303;19;20320;-50
2023/08/24 01:32:26;;;;;;;11.88;6.40;;;;;;;16.03;100.00;101576.47;7392410;19;20349;-48
2023/08/24 01:34:55;;;;;;;14.93;7.20;;;;;;;15.97;100.00;101575.38;7368446;19;20297;-47
2023/08/24 01:37:25;;;;;;;10.15;6.65;;;;;;;15.91;100.00;101568.22;7393206;19;20362;-49
2023/08/24 01:40:03;;;;;;;13.80;7.93;;;;;;;15.88;100.00;101563.78;7365069;19;20325;-45
2023/08/24 01:42:38;;;;;;;14.30;6.45;;;;;;;16.02;100.00;101553.88;7397170;19;20370;-46
2023/08/24 01:45:09;;;;;;;10.43;6.10;;;;;;;16.14;100.00;101552.47;7375079;19;20345;-47
2023/08/24 01:47:40;;;;;;;10.77;6.53;;;;;;;16.12;100.00;101548.94;7395848;19;20385;-47
2023/08/24 01:50:11;;;;;;;15.65;7.55;;;;;;;15.87;100.00;101549.03;7373255;19;20341;-47
2023/08/24 01:52:41;;;;;;;12.90;7.28;;;;;;;16.03;100.00;101547.81;7387968;19;20361;-48
2023/08/24 01:55:11;;;;;;;13.90;6.85;;;;;;;16.05;100.00;101543.53;7395554;19;20360;-48
2023/08/24 01:57:43;;;;;;;12.73;7.30;;;;;;;15.83;100.00;101548.88;7382281;19;20360;-46
2023/08/24 02:00:14;;;;;;;12.57;7.13;;;;;;;15.69;100.00;101544.06;7394710;19;20371;-47
2023/08/24 02:02:44;;;;;;;9.50;6.05;;;;;;;15.98;100.00;101546.78;7371628;19;20361;-50
2023/08/24 02:05:14;;;;;;;11.87;6.90;;;;;;;16.02;100.00;101542.56;7394932;19;20385;-46
2023/08/24 02:07:44;;;;;;;13.82;6.28;;;;;;;16.05;100.00;101538.34;7371519;19;20631;-46
2023/08/24 02:10:13;;;;;;;17.90;8.20;;;;;;;15.78;100.00;101541.78;7392366;19;20360;-47
2023/08/24 02:12:46;;;;;;;12.32;6.15;;;;;;;15.92;100.00;101541.38;7373555;19;20710;-46
2023/08/24 02:15:15;;;;;;;13.18;6.22;;;;;;;15.98;100.00;101535.50;7393525;19;20374;-49
2023/08/24 02:17:45;;;;;;;12.95;6.38;;;;;;;15.87;100.00;101536.00;7373303;19;20371;-47
2023/08/24 02:20:15;;;;;;;12.45;6.80;;;;;;;15.90;100.00;101538.69;7392739;19;20356;-46
2023/08/24 02:22:44;;;;;;;9.15;5.50;;;;;;;15.93;100.00;101533.63;7371409;19;20449;-49
2023/08/24 02:25:14;;;;;;;12.10;6.72;;;;;;;15.78;100.00;101541.78;7393227;19;20427;-45
2023/08/24 02:27:47;;;;;;;10.00;5.90;;;;;;;15.60;100.00;101528.19;7370948;19;20368;-49
2023/08/24 02:30:18;;;;;;;12.68;5.90;;;;;;;15.73;100.00;101545.97;7393061;19;20891;-48
2023/08/24 02:32:47;;;;;;;13.32;6.65;;;;;;;15.87;100.00;101546.41;7370544;19;20757;-48
2023/08/24 02:35:17;;;;;;;14.52;6.32;;;;;;;15.86;100.00;101541.16;7392250;19;20375;-53
2023/08/24 02:37:49;;;;;;;15.07;6.65;;;;;;;15.62;100.00;101536.91;7370406;19;20432;-46
2023/08/24 02:40:19;;;;;;;11.63;6.78;;;;;;;15.43;100.00;101541.50;7391792;19;20356;-47
2023/08/24 02:42:51;;;;;;;11.00;6.07;;;;;;;15.49;100.00;101540.84;7371753;19;20356;-48
2023/08/24 02:45:21;;;;;;;9.57;5.72;;;;;;;15.44;100.00;101535.44;7393044;19;20349;-46
2023/08/24 02:47:51;;;;;;;10.02;5.95;;;;;;;15.40;100.00;101528.41;7369010;19;20344;-52
2023/08/24 02:50:21;;;;;;;11.88;5.90;;;;;;;15.51;100.00;101529.66;7391220;19;20369;-51
2023/08/24 02:52:51;;;;;;;9.70;5.85;;;;;;;15.61;100.00;101523.03;7367698;19;20360;-48
2023/08/24 02:55:21;;;;;;;12.73;6.65;;;;;;;15.51;100.00;101528.75;7392862;19;20412;-46
2023/08/24 02:57:53;;;;;;;10.95;5.78;;;;;;;15.49;100.00;101517.44;7370740;19;20837;-51
2023/08/24 03:00:23;;;;;;;8.97;5.30;;;;;;;15.61;100.00;101519.53;7390488;19;20356;-49
2023/08/24 03:02:52;;;;;;;11.93;6.30;;;;;;;15.69;100.00;101525.00;7367444;19;20381;-49
2023/08/24 03:05:22;;;;;;;12.30;6.40;;;;;;;15.52;100.00;101526.22;7390702;19;20360;-49
2023/08/24 03:07:52;;;;;;;12.75;6.10;;;;;;;15.44;100.00;101522.44;7368234;19;20444;-50
2023/08/24 03:10:21;;;;;;;12.55;6.72;;;;;;;15.54;100.00;101523.69;7389450;19;20360;-46
2023/08/24 03:12:53;;;;;;;10.35;6.60;;;;;;;15.39;100.00;101534.44;7361366;19;20457;-48
2023/08/24 03:15:23;;;;;;;15.75;8.60;;;;;;;15.23;100.00;101533.03;7389943;19;20904;-45
2023/08/24 03:17:53;;;;;;;14.52;7.80;;;;;;;15.28;100.00;101535.78;7366514;19;20416;-48
2023/08/24 03:20:23;;;;;;;12.90;7.00;;;;;;;15.39;100.00;101518.84;7388997;19;20428;-46
2023/08/24 03:22:52;;;;;;;12.85;7.15;;;;;;;15.30;100.00;101528.91;7366733;19;20356;-52
2023/08/24 03:25:22;;;;;;;15.40;7.43;;;;;;;15.39;100.00;101518.84;7389956;19;20340;-49
2023/08/24 03:27:55;;;;;;;13.15;7.20;;;;;;;15.63;100.00;101512.66;7366949;19;20424;-47
2023/08/24 03:30:24;;;;;;;12.05;7.50;;;;;;;15.47;100.00;101512.16;7388915;19;20356;-46
2023/08/24 03:32:54;;;;;;;13.63;7.40;;;;;;;15.47;100.00;101511.28;7369434;19;20366;-49
2023/08/24 03:35:24;;;;;;;17.13;9.25;;;;;;;15.55;100.00;101511.53;7389505;19;20704;-48
2023/08/24 03:37:54;;;;;;;11.77;7.05;;;;;;;15.60;100.00;101507.38;7366138;19;20356;-51
2023/08/24 03:40:23;;;;;;;31.20;20.42;;;;;;;15.62;100.00;101518.69;7389079;19;20362;-50
2023/08/24 03:42:56;;;;;;;27.57;18.03;;;;;;;15.69;100.00;101512.88;7367767;19;20724;-44
2023/08/24 03:45:25;;;;;;;24.30;13.15;;;;;;;15.56;100.00;101510.69;7389686;19;20706;-52
2023/08/24 03:47:55;;;;;;;13.95;8.10;;;;;;;15.44;100.00;101527.66;7366767;19;20348;-51
2023/08/24 03:50:25;;;;;;;13.67;7.70;;;;;;;15.39;100.00;101527.50;7388217;19;20349;-46
2023/08/24 03:52:56;;;;;;;10.85;7.20;;;;;;;15.37;100.00;101530.88;7364624;19;20923;-50
2023/08/24 03:55:26;;;;;;;10.97;7.67;;;;;;;15.19;100.00;101536.34;7389099;19;20352;-49
2023/08/24 03:57:58;;;;;;;12.18;6.97;;;;;;;15.30;100.00;101531.50;7371736;19;20365;-47
2023/08/24 04:00:28;;;;;;;13.13;6.80;;;;;;;15.28;100.00;101535.78;7394470;19;20356;-51
2023/08/24 04:02:58;;;;;;;11.23;7.30;;;;;;;15.49;100.00;101526.09;7372009;19;20356;-48
2023/08/24 04:05:28;;;;;;;13.40;7.10;;;;;;;15.63;100.00;101533.47;7394907;19;20367;-51
2023/08/24 04:07:57;;;;;;;12.23;7.45;;;;;;;15.49;100.00;101546.03;7371402;19;20348;-47
2023/08/24 04:10:27;;;;;;;10.77;6.53;;;;;;;15.12;100.00;101550.81;7395115;19;20363;-47
2023/08/24 04:12:59;;;;;;;12.27;7.50;;;;;;;15.16;100.00;101550.09;7373502;19;20903;-45
2023/08/24 04:15:29;;;;;;;22.98;13.02;;;;;;;15.22;100.00;101542.53;7394237;19;20349;-48
2023/08/24 04:17:58;;;;;;;24.58;16.90;;;;;;;15.18;100.00;101544.97;7371369;19;20344;-45
2023/08/24 04:20:28;;;;;;;21.70;15.70;;;;;;;15.27;100.00;101542.69;7393633;19;20385;-48
2023/08/24 04:22:58;;;;;;;17.80;10.50;;;;;;;15.24;100.00;101545.19;7373876;19;20431;-46
2023/08/24 04:25:27;;;;;;;18.57;10.97;;;;;;;15.11;100.00;101544.75;7394641;19;20360;-49
2023/08/24 04:27:59;;;;;;;21.50;12.18;;;;;;;15.07;100.00;101545.47;7370499;19;20359;-49
2023/08/24 04:30:29;;;;;;;23.23;15.07;;;;;;;15.13;100.00;101539.63;7393454;19;20912;-50
2023/08/24 04:32:59;;;;;;;21.23;12.68;;;;;;;15.08;100.00;101538.56;7370566;19;20437;-48
2023/08/24 04:35:29;;;;;;;18.08;11.93;;;;;;;15.14;100.00;101537.88;7394237;19;20373;-51
2023/08/24 04:37:58;;;;;;;15.73;9.00;;;;;;;15.19;100.00;101537.22;7370171;19;20347;-47
2023/08/24 04:40:28;;;;;;;14.57;8.80;;;;;;;14.91;100.00;101540.56;7393668;19;20348;-50
2023/08/24 04:43:00;;;;;;;14.75;8.63;;;;;;;14.82;100.00;101541.09;7370504;19;20961;-48
2023/08/24 04:45:30;;;;;;;15.45;8.70;;;;;;;14.94;100.00;101530.25;7394918;19;20377;-50
2023/08/24 04:48:01;;;;;;;15.77;8.93;;;;;;;14.98;100.00;101538.22;7369787;19;20345;-50
2023/08/24 04:50:30;;;;;;;16.03;8.90;;;;;;;15.14;100.00;101533.59;7393291;19;20444;-49
2023/08/24 04:53:00;;;;;;;13.95;9.10;;;;;;;14.89;100.00;101537.91;7370410;19;20290;-46
2023/08/24 04:55:29;;;;;;;20.73;12.27;;;;;;;14.85;100.00;101542.09;7393836;19;20389;-52
2023/08/24 04:58:02;;;;;;;82.28;42.25;;;;;;;15.02;100.00;101538.34;7369751;19;21247;-48
2023/08/24 05:00:32;;;;;;;24.25;14.00;;;;;;;15.04;100.00;101541.88;7393174;19;21064;-51
2023/08/24 05:03:02;;;;;;;33.28;19.25;;;;;;;14.96;100.00;101542.47;7370248;19;20300;-49
2023/08/24 05:05:32;;;;;;;23.75;14.07;;;;;;;14.94;100.00;101546.75;7393339;19;20360;-50
2023/08/24 05:08:05;;;;;;;21.58;12.05;;;;;;;15.00;100.00;101548.66;7368815;19;20305;-52
2023/08/24 05:10:36;;;;;;;15.27;9.18;;;;;;;15.05;100.00;101543.63;7392658;19;20360;-51
2023/08/24 05:13:08;;;;;;;14.38;8.60;;;;;;;14.98;100.00;101551.22;7370446;19;20331;-47
2023/08/24 05:15:37;;;;;;;15.50;9.45;;;;;;;14.87;100.00;101549.06;7393854;19;20500;-48
2023/08/24 05:18:07;;;;;;;16.27;9.57;;;;;;;14.77;100.00;101558.22;7369609;19;20296;-50
2023/08/24 05:20:37;;;;;;;20.35;10.05;;;;;;;14.73;100.00;101557.19;7392474;19;20361;-48
2023/08/24 05:23:06;;;;;;;16.40;9.85;;;;;;;14.87;100.00;101549.94;7370018;19;20369;-49
2023/08/24 05:25:36;;;;;;;17.35;9.55;;;;;;;14.94;100.00;101551.03;7392662;19;20908;-48
2023/08/24 05:28:09;;;;;;;14.57;9.65;;;;;;;14.88;100.00;101545.63;7369333;19;20296;-46
2023/08/24 05:30:38;;;;;;;17.30;9.40;;;;;;;14.85;100.00;101552.50;7392633;19;20364;-48
2023/08/24 05:33:08;;;;;;;18.30;9.68;;;;;;;14.84;100.00;101550.72;7367962;19;20292;-49
2023/08/24 05:35:38;;;;;;;16.37;9.17;;;;;;;14.90;100.00;101550.06;7393177;19;20352;-53
2023/08/24 05:38:07;;;;;;;13.68;8.80;;;;;;;14.94;100.00;101556.25;7369200;19;20293;-47
2023/08/24 05:40:37;;;;;;;16.40;9.10;;;;;;;14.93;100.00;101550.16;7392264;19;20357;-49
2023/08/24 05:43:09;;;;;;;15.40;9.47;;;;;;;14.90;100.00;101546.56;7369653;19;20370;-46
2023/08/24 05:45:40;;;;;;;16.30;9.13;;;;;;;14.91;100.00;101545.75;7393124;19;20376;-47
2023/08/24 05:48:10;;;;;;;14.35;9.00;;;;;;;14.97;100.00;101533.84;7367844;19;20389;-48
2023/08/24 05:50:40;;;;;;;13.25;9.20;;;;;;;15.01;100.00;101536.56;7391941;19;20360;-50
2023/08/24 05:53:09;;;;;;;12.23;8.00;;;;;;;15.02;100.00;101530.53;7369858;19;20292;-47
2023/08/24 05:55:39;;;;;;;14.98;8.75;;;;;;;15.03;100.00;101529.72;7392515;19;20722;-50
2023/08/24 05:58:11;;;;;;;18.08;8.45;;;;;;;15.05;100.00;101538.44;7368720;19;20470;-49
2023/08/24 06:00:41;;;;;;;14.30;7.80;;;;;;;15.10;100.00;101527.38;7393639;19;20436;-51
2023/08/24 06:03:10;;;;;;;12.00;7.53;;;;;;;15.17;100.00;101525.88;7368150;19;20388;-50
2023/08/24 06:05:40;;;;;;;10.52;6.47;;;;;;;15.27;100.00;101523.63;7387692;19;20357;-49
2023/08/24 06:08:10;;;;;;;14.88;8.23;;;;;;;15.39;100.00;101524.91;7368478;19;20292;-50
2023/08/24 06:10:39;;;;;;;12.73;6.87;;;;;;;15.49;100.00;101523.50;7390688;19;20372;-51
2023/08/24 06:13:11;;;;;;;8.07;4.70;;;;;;;15.60;100.00;101521.28;7367114;19;20301;-50
2023/08/24 06:15:41;;;;;;;7.25;4.30;;;;;;;15.61;100.00;101514.34;7391039;19;20365;-53
2023/08/24 06:18:11;;;;;;;9.63;4.90;;;;;;;15.71;100.00;101515.53;7366241;19;20308;-51
2023/08/24 06:20:40;;;;;;;12.00;6.53;;;;;;;15.72;100.00;101515.59;7390247;19;20371;-52
2023/08/24 06:23:10;;;;;;;9.93;5.43;;;;;;;15.84;100.00;101514.22;7367921;19;20296;-51
2023/08/24 06:25:39;;;;;;;11.03;5.77;;;;;;;15.90;100.00;101514.41;7393077;19;20377;-49
2023/08/24 06:28:13;;;;;;;10.38;5.05;;;;;;;15.99;100.00;101521.66;7367793;19;20644;-50
2023/08/24 06:30:43;;;;;;;9.40;4.40;;;;;;;16.04;100.00;101523.56;7391080;19;20367;-48
2023/08/24 06:33:13;;;;;;;12.30;5.07;;;;;;;16.09;100.00;101523.69;7367708;19;20431;-49
2023/08/24 06:35:43;;;;;;;9.27;4.67;;;;;;;16.17;100.00;101523.94;7391191;19;20427;-51
2023/08/24 06:38:12;;;;;;;11.20;4.72;;;;;;;16.27;100.00;101528.63;7366677;19;20676;-49
2023/08/24 06:40:42;;;;;;;6.70;3.80;;;;;;;16.39;100.00;101540.22;7389717;19;20701;-49
2023/08/24 06:43:14;;;;;;;9.75;4.90;;;;;;;16.35;100.00;101548.78;7368603;19;20301;-48
2023/08/24 06:45:44;;;;;;;5.93;3.40;;;;;;;16.40;100.00;101557.63;7392000;19;20368;-52
2023/08/24 06:48:13;;;;;;;5.90;3.22;;;;;;;16.47;100.00;101573.47;7366507;19;20381;-50
2023/08/24 06:50:43;;;;;;;8.60;4.00;;;;;;;16.58;100.00;101581.63;7390475;19;20368;-48
2023/08/24 06:53:14;;;;;;;8.55;3.20;;;;;;;16.66;100.00;101583.56;7367173;19;20293;-52
2023/08/24 06:55:44;;;;;;;7.70;3.80;;;;;;;16.70;100.00;101590.63;7391307;19;20384;-48
2023/08/24 06:58:16;;;;;;;10.67;5.93;;;;;;;16.73;100.00;101595.94;7367835;19;20363;-48
2023/08/24 07:00:45;;;;;;;9.38;3.00;;;;;;;16.77;100.00;101597.78;7391388;19;20436;-48
2023/08/24 07:03:15;;;;;;;8.10;3.70;;;;;;;16.76;100.00;101606.44;7366368;19;20852;-48
2023/08/24 07:05:45;;;;;;;6.60;3.10;;;;;;;16.77;100.00;101618.63;7391064;19;20349;-49
2023/08/24 07:08:15;;;;;;;6.13;2.80;;;;;;;16.97;100.00;101623.56;7366578;19;20380;-51
2023/08/24 07:10:45;;;;;;;9.82;3.50;;;;;;;16.97;100.00;101628.78;7390353;19;20994;-46
2023/08/24 07:13:17;;;;;;;5.55;2.72;;;;;;;17.04;100.00;101648.09;7366182;19;20293;-48
2023/08/24 07:15:47;;;;;;;6.85;2.63;;;;;;;17.11;100.00;101656.16;7390469;19;20519;-50
2023/08/24 07:18:16;;;;;;;10.45;3.85;;;;;;;17.08;100.00;101670.81;7367351;19;20465;-51
2023/08/24 07:20:46;;;;;;;8.27;2.70;;;;;;;17.16;100.00;101678.88;7391251;19;20368;-51
2023/08/24 07:23:16;;;;;;;5.10;2.40;;;;;;;17.15;100.00;101701.44;7366990;19;20356;-50
2023/08/24 07:25:45;;;;;;;5.10;2.10;;;;;;;17.29;100.00;101709.69;7392447;19;20363;-51
2023/08/24 07:28:18;;;;;;;4.93;2.22;;;;;;;17.32;100.00;101720.19;7367895;19;20750;-52
2023/08/24 07:30:47;;;;;;;4.57;1.80;;;;;;;17.41;100.00;101728.28;7394325;19;20927;-48
2023/08/24 07:33:17;;;;;;;7.30;2.55;;;;;;;17.42;100.00;101744.81;7372567;19;20852;-47
2023/08/24 07:35:47;;;;;;;6.65;2.00;;;;;;;17.46;100.00;101749.28;7397267;19;20455;-48
2023/08/24 07:38:17;;;;;;;5.38;2.20;;;;;;;17.43;100.00;101756.16;7373024;19;20307;-49
2023/08/24 07:40:47;;;;;;;4.33;1.50;;;;;;;17.54;100.00;101760.81;7397305;19;20364;-48
2023/08/24 07:43:19;;;;;;;4.75;2.10;;;;;;;17.57;100.00;101769.59;7372668;19;20380;-47
2023/08/24 07:45:49;;;;;;;4.85;1.48;;;;;;;17.64;100.00;101782.84;7397458;19;20360;-47
2023/08/24 07:48:19;;;;;;;6.20;1.70;;;;;;;17.78;100.00;101796.28;7372997;19;20312;-52
2023/08/24 07:50:48;;;;;;;5.90;1.80;;;;;;;17.86;100.00;101795.63;7395906;19;20400;-49
2023/08/24 07:53:18;;;;;;;5.75;2.10;;;;;;;17.84;100.00;101810.38;7373905;19;20307;-51
2023/08/24 07:55:50;;;;;;;4.10;1.40;;;;;;;17.86;100.00;101824.34;7397128;19;20435;-49
2023/08/24 07:58:23;;;;;;;5.30;1.63;;;;;;;17.78;100.00;101842.38;7371919;19;20297;-47
2023/08/24 08:00:53;;;;;;;4.95;1.42;;;;;;;17.93;100.00;101849.75;7395975;19;20816;-47
2023/08/24 08:03:23;;;;;;;5.28;1.55;;;;;;;17.88;100.00;101856.56;7372860;19;20292;-50
2023/08/24 08:05:52;;;;;;;10.10;4.32;;;;;;;17.99;100.00;101847.34;7397493;19;20353;-45
2023/08/24 08:08:41;;;;;;;6.93;3.50;;;;;;;18.07;100.00;101866.75;7373297;19;20355;-48
2023/08/24 08:11:10;;;;;;;4.93;1.30;;;;;;;18.08;100.00;101873.75;7395260;19;20348;-48
2023/08/24 08:13:42;;;;;;;4.57;1.67;;;;;;;18.26;100.00;101867.28;7372648;19;20321;-50
2023/08/24 08:16:12;;;;;;;6.65;2.60;;;;;;;18.35;100.00;101859.69;7398336;19;20773;-51
2023/08/24 08:18:42;;;;;;;7.10;3.60;;;;;;;18.48;100.00;101854.78;7372408;19;20293;-49
2023/08/24 08:21:12;;;;;;;8.07;3.33;;;;;;;18.43;100.00;101857.28;7396888;19;20380;-50
2023/08/24 08:23:42;;;;;;;8.75;4.03;;;;;;;18.34;100.00;101863.13;7372204;19;20752;-47
2023/08/24 08:26:13;;;;;;;4.93;1.60;;;;;;;18.48;100.00;101858.28;7395866;19;20439;-49
2023/08/24 08:28:45;;;;;;;5.50;2.20;;;;;;;18.57;100.00;101862.84;7371736;19;20400;-47
2023/08/24 08:31:15;;;;;;;18.58;10.05;;;;;;;18.57;100.00;101864.59;7394723;19;20369;-49
2023/08/24 08:33:45;;;;;;;24.25;12.13;;;;;;;18.60;100.00;101862.03;7373418;19;20356;-45
2023/08/24 08:36:15;;;;;;;18.05;10.20;;;;;;;18.63;100.00;101862.16;7395531;19;20698;-45
2023/08/24 08:38:45;;;;;;;6.38;2.70;;;;;;;18.81;100.00;101858.25;7370573;19;20320;-50
2023/08/24 08:41:15;;;;;;;5.57;2.10;;;;;;;18.95;100.00;101850.72;7394646;19;20352;-52
2023/08/24 08:43:47;;;;;;;5.75;1.63;;;;;;;19.11;100.00;101857.22;7373327;19;20699;-50
2023/08/24 08:46:17;;;;;;;4.75;1.75;;;;;;;19.26;100.00;101861.94;7397993;19;20936;-48
2023/08/24 08:48:48;;;;;;;5.25;1.70;;;;;;;19.37;100.00;101870.94;7369678;19;20332;-48
2023/08/24 08:51:18;;;;;;;4.53;1.50;;;;;;;19.47;100.00;101874.63;7393568;19;20348;-48
2023/08/24 08:53:49;;;;;;;5.45;1.40;;;;;;;19.44;100.00;101858.88;7371010;19;21066;-46
2023/08/24 08:56:18;;;;;;;6.13;2.40;;;;;;;19.35;100.00;101856.94;7397426;19;20373;-48
2023/08/24 08:58:51;;;;;;;10.40;4.18;;;;;;;19.48;100.00;101854.59;7368608;19;20410;-48
2023/08/24 09:01:21;;;;;;;6.32;1.83;;;;;;;19.66;100.00;101861.94;7394734;19;20361;-49
2023/08/24 09:03:51;;;;;;;9.77;4.10;;;;;;;19.74;100.00;101868.22;7370995;19;20690;-50
2023/08/24 09:06:20;;;;;;;9.20;3.00;;;;;;;19.75;100.00;101872.63;7394470;19;20387;-48
2023/08/24 09:08:50;;;;;;;4.60;1.55;;;;;;;19.77;100.00;101868.31;7369824;19;20872;-49
2023/08/24 09:11:20;;;;;;;5.93;1.60;;;;;;;19.91;100.00;101865.09;7394331;19;20374;-51
2023/08/24 09:13:52;;;;;;;7.13;2.50;;;;;;;19.99;100.00;101871.38;7370843;19;20345;-48
2023/08/24 09:16:22;;;;;;;5.00;2.28;;;;;;;20.00;100.00;101888.88;7394328;19;20436;-50
2023/08/24 09:18:52;;;;;;;6.88;2.00;;;;;;;20.09;100.00;101893.41;7369743;19;20352;-48
2023/08/24 09:21:21;;;;;;;6.00;1.92;;;;;;;20.24;100.00;101900.69;7393022;19;20399;-47
2023/08/24 09:23:55;;;;;;;4.53;1.90;;;;;;;20.35;100.00;101887.78;7366403;19;20324;-45
2023/08/24 09:26:30;;;;;;;4.95;2.20;;;;;;;20.20;100.00;101898.88;7394070;19;20345;-51
2023/08/24 09:29:03;;;;;;;7.75;3.17;;;;;;;19.91;100.00;101910.50;7366316;19;20352;-49
2023/08/24 09:31:38;;;;;;;9.52;4.00;;;;;;;19.91;100.00;101912.22;7393215;19;20429;-47
2023/08/24 09:34:08;;;;;;;8.05;4.10;;;;;;;20.06;100.00;101912.56;7367736;19;20317;-48
2023/08/24 09:36:39;;;;;;;7.15;2.90;;;;;;;20.03;100.00;101904.66;7395024;19;20356;-47
2023/08/24 09:39:09;;;;;;;6.53;2.33;;;;;;;20.32;100.00;101908.72;7368985;19;20343;-50
2023/08/24 09:41:42;;;;;;;9.35;3.35;;;;;;;20.37;100.00;101921.03;7394118;19;20436;-48
2023/08/24 09:44:14;;;;;;;7.00;2.63;;;;;;;20.75;100.00;101924.34;7370612;19;20396;-50
2023/08/24 09:46:45;;;;;;;8.70;3.88;;;;;;;20.61;100.00;101919.75;7393584;19;20749;-48
2023/08/24 09:49:15;;;;;;;7.80;3.23;;;;;;;20.69;100.00;101913.75;7368605;19;20424;-48
2023/08/24 09:51:44;;;;;;;12.52;6.55;;;;;;;20.54;100.00;101903.88;7394500;19;20371;-49
2023/08/24 09:54:14;;;;;;;16.45;9.00;;;;;;;20.67;100.00;101915.47;7366609;19;20329;-48
2023/08/24 09:56:44;;;;;;;7.28;3.72;;;;;;;20.88;100.00;101928.97;7394227;19;20357;-48
2023/08/24 09:59:18;;;;;;;8.90;3.38;;;;;;;21.06;100.00;101924.91;7368041;19;20505;-49
2023/08/24 10:01:50;;;;;;;10.70;3.40;;;;;;;21.12;100.00;101919.78;7394811;19;20423;-48
2023/08/24 10:04:23;;;;;;;8.90;3.30;;;;;;;21.04;100.00;101918.78;7367966;19;20328;-48
2023/08/24 10:06:55;;;;;;;6.00;2.72;;;;;;;21.11;100.00;101938.09;7395973;19;20387;-45
2023/08/24 10:09:28;;;;;;;9.80;5.10;;;;;;;21.21;100.00;101923.41;7367409;19;20348;-43
2023/08/24 10:12:01;;;;;;;15.48;5.53;;;;;;;21.14;100.00;101927.69;7394384;19;20364;-44
2023/08/24 10:14:37;;;;;;;11.07;4.40;;;;;;;21.00;100.00;101906.44;7368263;19;20329;-46
2023/08/24 10:17:06;;;;;;;11.30;5.10;;;;;;;21.16;100.00;101883.97;7391988;19;20365;-49
2023/08/24 10:19:36;;;;;;;13.40;6.50;;;;;;;21.12;100.00;101861.19;7365902;19;20416;-48
2023/08/24 10:22:06;;;;;;;9.70;5.10;;;;;;;21.23;100.00;101848.22;7392079;19;20356;-45
2023/08/24 10:24:36;;;;;;;8.68;4.25;;;;;;;21.37;100.00;101825.66;7366780;19;20312;-46
2023/08/24 10:27:06;;;;;;;11.70;3.50;;;;;;;21.75;100.00;101850.72;7393113;19;20379;-50
2023/08/24 10:29:38;;;;;;;10.45;3.95;;;;;;;21.87;100.00;101820.19;7364156;19;20497;-50
2023/08/24 10:32:08;;;;;;;8.95;4.72;;;;;;;21.67;100.00;101786.66;7393047;19;20435;-46
2023/08/24 10:34:39;;;;;;;11.18;4.97;;;;;;;21.75;100.00;101792.03;7367264;19;20320;-43
2023/08/24 10:37:12;;;;;;;17.00;8.18;;;;;;;21.61;100.00;101724.47;7394615;19;20706;-46
2023/08/24 10:39:46;;;;;;;8.60;4.53;;;;;;;21.58;100.00;101635.16;7367440;19;20432;-48
2023/08/24 10:42:17;;;;;;;9.20;4.30;;;;;;;21.77;100.00;101632.75;7395222;19;20375;-46
2023/08/24 10:44:50;;;;;;;16.00;7.67;;;;;;;21.55;100.00;101582.66;7369678;19;20408;-47
2023/08/24 10:47:22;;;;;;;9.43;4.10;;;;;;;21.78;100.00;101568.88;7393230;19;20432;-46
2023/08/24 10:50:02;;;;;;;10.05;5.00;;;;;;;21.82;100.00;101486.59;7366378;19;20336;-47
2023/08/24 10:52:36;;;;;;;9.85;3.88;;;;;;;22.16;100.00;101505.22;7396610;19;20398;-50
2023/08/24 10:55:07;;;;;;;11.43;4.95;;;;;;;22.19;100.00;101444.78;7372918;19;20344;-48
2023/08/24 10:57:41;;;;;;;13.50;5.40;;;;;;;22.44;100.00;101376.53;7394797;19;20361;-46
2023/08/24 11:00:21;;;;;;;12.73;5.40;;;;;;;22.60;100.00;101350.31;7372354;19;20345;-48
2023/08/24 11:02:52;;;;;;;23.83;11.97;;;;;;;22.21;100.00;101316.88;7369823;19;20361;-49
2023/08/24 11:05:28;;;;;;;10.43;4.65;;;;;;;22.43;100.00;101295.03;7390159;19;20404;-50
2023/08/24 11:07:59;;;;;;;18.13;8.85;;;;;;;22.63;100.00;101250.38;7362500;19;20352;-43
2023/08/24 11:10:48;;;;;;;10.90;4.68;;;;;;;22.86;100.00;101194.25;7387447;19;20367;-47
2023/08/24 11:13:22;;;;;;;7.40;3.35;;;;;;;22.95;100.00;101099.50;7364650;19;21241;-46
2023/08/24 11:15:58;;;;;;;8.33;3.50;;;;;;;22.91;100.00;101053.06;7388136;19;20432;-47
2023/08/24 11:18:30;;;;;;;8.60;3.13;;;;;;;22.97;100.00;101124.03;7363543;19;20341;-48
2023/08/24 11:21:03;;;;;;;10.40;3.95;;;;;;;23.02;100.00;101116.16;7387970;19;20349;-47
2023/08/24 11:23:33;;;;;;;9.00;3.55;;;;;;;22.84;100.00;100982.97;7359220;19;20321;-48
2023/08/24 11:26:03;;;;;;;8.85;3.80;;;;;;;22.89;100.00;100973.28;7392573;19;20432;-48
2023/08/24 11:28:33;;;;;;;10.30;4.30;;;;;;;22.73;100.00;100930.44;7365252;19;20337;-45